^^
Grace C. Lehan Memorial Weather Station Historical Data
Daily Summary for February 3, 2021 Units:  Metric    English   Both
Daily Weekly Monthly Yearly
  High: Low: Average:
Temperature: 0.8 °C -1.2 °C -0.3 °C
Dew Point: -1 °C -2.5 °C -1.8 °C
Humidity: 91.7% 88% 90%
Wind Speed: 0.6km/h 0km/h 0km/h
Wind Gust: 6.4km/h - -
Wind- - NW
Pressure: 1020.9 hPa 1018.5 hPa -
Precipitation: 0 mm    
 
 
Tabular Data for February 3, 2021
Time Temperature Dew Point Pressure Wind Wind Speed Wind Gust Humidity Rainfall Rate (Hourly) solar
00:04 0.8 °C -1 °C 1018.5 hPa Calm   6.4 km/h 88% 0 mm 0 W/m2
00:09 0.7 °C -1 °C 1018.5 hPa Calm     88% 0 mm 0 W/m2
00:14 0.7 °C -1.1 °C 1018.8 hPa Calm     88% 0 mm 0 W/m2
00:19 0.7 °C -1.1 °C 1018.8 hPa Calm     88% 0 mm 0 W/m2
00:24 0.7 °C -1.1 °C 1018.8 hPa Calm     88% 0 mm 0 W/m2
00:29 0.6 °C -1.1 °C 1018.8 hPa Calm     88% 0 mm 0 W/m2
00:34 0.6 °C -1.2 °C 1019.2 hPa Calm     88% 0 mm 0 W/m2
00:39 0.6 °C -1.2 °C 1019.2 hPa Calm     88% 0 mm 0 W/m2
00:44 0.5 °C -1.2 °C 1019.2 hPa Calm     88% 0 mm 0 W/m2
00:49 0.4 °C -1.3 °C 1019.2 hPa Calm     88% 0 mm 0 W/m2
00:54 0.4 °C -1.3 °C 1019.2 hPa Calm     88% 0 mm 0 W/m2
00:59 0.3 °C -1.4 °C 1019.2 hPa Calm     88% 0 mm 0 W/m2
01:04 0.3 °C -1.5 °C 1019.2 hPa Calm     88% 0 mm 0 W/m2
01:09 0.2 °C -1.5 °C 1019.5 hPa Calm     88% 0 mm 0 W/m2
01:14 0.2 °C -1.4 °C 1019.5 hPa Calm     88.8% 0 mm 0 W/m2
01:19 0.1 °C -1.4 °C 1019.5 hPa WNW 0.2 km/h 4.8 km/h 89% 0 mm 0 W/m2
01:24 0.1 °C -1.5 °C 1019.5 hPa WNW 0.2 km/h 4.8 km/h 89% 0 mm 0 W/m2
01:29 0.1 °C -1.6 °C 1019.5 hPa WNW 0.3 km/h 4.8 km/h 89% 0 mm 0 W/m2
01:34 0 °C -1.6 °C 1019.5 hPa WNW 0.2 km/h 4.8 km/h 89% 0 mm 0 W/m2
01:39 0 °C -1.6 °C 1019.5 hPa WNW 0.2 km/h 3.2 km/h 89% 0 mm 0 W/m2
01:44 -0.1 °C -1.5 °C 1019.9 hPa WNW 0.3 km/h 4.8 km/h 89.8% 0 mm 0 W/m2
01:49 -0.1 °C -1.6 °C 1019.9 hPa NW 0.5 km/h 4.8 km/h 89.7% 0 mm 0 W/m2
01:54 -0.1 °C -1.6 °C 1019.9 hPa NW 0.5 km/h 4.8 km/h 89.6% 0 mm 0 W/m2
01:59 -0.2 °C -1.6 °C 1019.5 hPa NW 0.6 km/h 4.8 km/h 90% 0 mm 0 W/m2
02:04 -0.2 °C -1.6 °C 1019.9 hPa NW 0.3 km/h 4.8 km/h 90% 0 mm 0 W/m2
02:09 -0.2 °C -1.6 °C 1019.9 hPa Calm   4.8 km/h 90% 0 mm 0 W/m2
02:14 -0.2 °C -1.6 °C 1019.9 hPa NW 0.2 km/h 4.8 km/h 90% 0 mm 0 W/m2
02:19 -0.2 °C -1.7 °C 1020.2 hPa NW 0.2 km/h 4.8 km/h 90% 0 mm 0 W/m2
02:24 -0.3 °C -1.7 °C 1020.2 hPa Calm   4.8 km/h 90% 0 mm 0 W/m2
02:29 -0.3 °C -1.7 °C 1020.2 hPa Calm   4.8 km/h 90% 0 mm 0 W/m2
02:34 -0.3 °C -1.7 °C 1020.2 hPa Calm   4.8 km/h 90% 0 mm 0 W/m2
02:39 -0.3 °C -1.8 °C 1020.2 hPa Calm     90% 0 mm 0 W/m2
02:44 -0.3 °C -1.8 °C 1020.2 hPa Calm     90% 0 mm 0 W/m2
02:49 -0.4 °C -1.8 °C 1020.2 hPa Calm     90% 0 mm 0 W/m2
02:54 -0.4 °C -1.9 °C 1020.2 hPa Calm     90% 0 mm 0 W/m2
02:59 -0.5 °C -1.9 °C 1020.2 hPa Calm     90% 0 mm 0 W/m2
03:04 -0.5 °C -1.9 °C 1020.2 hPa Calm     90% 0 mm 0 W/m2
03:09 -0.6 °C -2 °C 1019.9 hPa Calm     90% 0 mm 0 W/m2
03:14 -0.6 °C -2 °C 1019.9 hPa Calm     90.2% 0 mm 0 W/m2
03:19 -0.7 °C -1.9 °C 1019.9 hPa Calm     91% 0 mm 0 W/m2
03:24 -0.7 °C -2 °C 1020.2 hPa Calm     91% 0 mm 0 W/m2
03:29 -0.7 °C -2.1 °C 1019.9 hPa Calm     91% 0 mm 0 W/m2
03:34 -0.8 °C -2.1 °C 1019.9 hPa Calm     91% 0 mm 0 W/m2
03:39 -0.8 °C -2.1 °C 1019.9 hPa Calm     91% 0 mm 0 W/m2
03:44 -0.9 °C -2.2 °C 1019.9 hPa Calm     91% 0 mm 0 W/m2
03:49 -0.9 °C -2.2 °C 1019.9 hPa Calm     91% 0 mm 0 W/m2
03:54 -1 °C -2.3 °C 1019.9 hPa Calm     91% 0 mm 0 W/m2
03:59 -1 °C -2.3 °C 1019.9 hPa Calm     91% 0 mm 0 W/m2
04:00 -1.1 °C -2.3 °C 1019.5 hPa Calm     91% 0 mm 0 W/m2
04:09 -1.2 °C -2.4 °C 1019.5 hPa Calm     91% 0 mm 0 W/m2
04:14 -1.2 °C -2.4 °C 1019.5 hPa Calm     91% 0 mm 0 W/m2
04:19 -1.2 °C -2.5 °C 1019.2 hPa NW 0.5 km/h 4.8 km/h 91% 0 mm 0 W/m2
04:24 -1.2 °C -2.5 °C 1019.5 hPa Calm   4.8 km/h 91% 0 mm 0 W/m2
04:29 -1.2 °C -2.5 °C 1019.9 hPa Calm   4.8 km/h 91% 0 mm 0 W/m2
04:34 -1.2 °C -2.5 °C 1020.2 hPa NW 0.3 km/h 4.8 km/h 91% 0 mm 0 W/m2
04:39 -1.2 °C -2.4 °C 1020.5 hPa NW 0.2 km/h 4.8 km/h 91.6% 0 mm 0 W/m2
04:44 -1.2 °C -2.4 °C 1020.5 hPa Calm   4.8 km/h 91.6% 0 mm 0 W/m2
04:48 -1.2 °C -2.4 °C 1020.9 hPa Calm   4.8 km/h 91.7% 0 mm 0 W/m2
Hartford County Weather
Compliments of Weather Underground - 4 mb